Bookmark and Share
Track history (hours):
 

Meita Maru

Last reported at 2014-Apr-03 15:32 UTC. Time now 2014-Apr-18 18:20 UTC.
Position S 34°20' E 018°02'.
Warning: this ship's position is 15 days out of date.

Length 106 m; draft 4.8 m.

Type: Cargo ship. MMSI: 576419000.

NotesDate/timePositionNaut miles runAvg speedWind from/ knotsBaromVisibWave heightAir tempDewpointWater temp
2014-Apr-03 15:32S 34°20' E 018°02'1615.8
2014-Apr-03 14:32S 34°28' E 018°19'1515.2
2014-Apr-03 13:33S 34°36' E 018°34'1914.9
2014-Apr-03 12:18S 34°44' E 018°55'7213.7
2014-Apr-03 07:05S 35°05' E 020°18'2614.0
2014-Apr-03 05:14S 34°56' E 020°48'6714.1
2014-Apr-03 00:27S 34°47' E 022°09'46213.6
2014-Apr-01 14:22S 31°10' E 030°16'4714.5
2014-Apr-01 11:07S 30°32' E 030°47'915.7
2014-Apr-01 10:32S 30°24' E 030°53'1615.9
2014-Apr-01 09:33S 30°11' E 031°03'1414.4
2014-Apr-01 08:33S 29°57' E 031°08'7 1.9
2014-Apr-01 04:32S 29°52' E 031°02'0 0.0
2014-Apr-01 02:26S 29°52' E 031°02'0 0.0
2014-Apr-01 01:20S 29°52' E 031°02'0 0.0
2014-Apr-01 00:26S 29°52' E 031°02'0 0.0
2014-Mar-31 19:20S 29°52' E 031°02'0 0.0
2014-Mar-31 18:32S 29°52' E 031°02'0 0.0
2014-Mar-31 17:32S 29°52' E 031°02'0 0.0
2014-Mar-31 16:32S 29°52' E 031°02'0 0.0
2014-Mar-31 15:32S 29°52' E 031°02'0 0.0
2014-Mar-31 13:32S 29°52' E 031°02'0 0.0
2014-Mar-31 12:32S 29°52' E 031°02'0 0.0
2014-Mar-31 11:08S 29°52' E 031°02'1 1.2
2014-Mar-31 10:33S 29°53' E 031°03'5 5.1
2014-Mar-31 09:32S 29°48' E 031°06'1 0.8
2014-Mar-31 08:33S 29°48' E 031°07'0 0.4
2014-Mar-31 07:33S 29°49' E 031°07'0 0.4
2014-Mar-31 06:33S 29°49' E 031°07'0 0.4
2014-Mar-31 05:33S 29°49' E 031°08'1312.9
2014-Mar-31 04:33S 29°53' E 031°22'1615.1
2014-Mar-31 03:31S 29°59' E 031°39'9 6.4
2014-Mar-31 02:03S 30°08' E 031°40'  

Dump ship's entire track history

sailing weather and tide predictions

Meita Maru — YJQE8 — position and weather